Time;durP1;ratioP1;P1;durP2;ratioP2;P2;SDS_P1;SDS_P2;PMS_P1;PMS_P2;Temp;Humidity;BMP_temperature;BMP_pressure;BME280_temperature;BME280_humidity;BME280_pressure;Samples;Min_cycle;Max_cycle;Signal;HPM_P1;HPM_P2
2023/05/28 00:00:45;;;;;;;56.03;38.70;;;;;;;;;;5025921;28;20028;-66
2023/05/28 00:03:17;;;;;;;44.65;32.17;;;;;;;;;;5024375;28;20101;-67
2023/05/28 00:05:44;;;;;;;103.50;73.43;;;;;;;;;;5024003;28;20064;-67
2023/05/28 00:08:13;;;;;;;100.30;68.68;;;;;;;;;;5025206;28;20499;-66
2023/05/28 00:10:41;;;;;;;69.90;49.85;;;;;;;;;;5025577;28;20081;-66
2023/05/28 00:13:07;;;;;;;141.43;104.00;;;;;;;;;;5023596;28;20434;-66
2023/05/28 00:15:35;;;;;;;92.55;57.28;;;;;;;;;;5030880;28;20056;-66
2023/05/28 00:18:02;;;;;;;46.30;28.23;;;;;;;;;;5023548;28;20030;-65
2023/05/28 00:20:29;;;;;;;41.65;30.35;;;;;;;;;;5025326;28;20557;-74
2023/05/28 00:22:56;;;;;;;40.95;30.08;;;;;;;;;;5025244;28;20022;-74
2023/05/28 00:25:23;;;;;;;54.10;40.78;;;;;;;;;;5027638;28;20029;-77
2023/05/28 00:27:50;;;;;;;56.05;34.70;;;;;;;;;;5023787;28;20029;-77
2023/05/28 00:30:16;;;;;;;50.78;29.35;;;;;;;;;;5024617;28;20021;-77
2023/05/28 00:32:43;;;;;;;46.22;32.47;;;;;;;;;;5025115;28;20026;-74
2023/05/28 00:35:10;;;;;;;55.58;34.40;;;;;;;;;;5023439;28;20026;-76
2023/05/28 00:37:36;;;;;;;46.58;32.45;;;;;;;;;;5024325;28;20084;-78
2023/05/28 00:40:03;;;;;;;46.83;31.25;;;;;;;;;;5025043;28;20025;-74
2023/05/28 00:42:30;;;;;;;51.42;34.17;;;;;;;;;;5022746;28;20406;-65
2023/05/28 00:44:57;;;;;;;55.35;35.08;;;;;;;;;;5029413;28;20056;-66
2023/05/28 00:47:24;;;;;;;56.33;35.33;;;;;;;;;;5023488;28;20021;-66
2023/05/28 00:49:54;;;;;;;52.35;34.33;;;;;;;;;;5024235;28;20489;-66
2023/05/28 00:52:21;;;;;;;47.50;32.42;;;;;;;;;;5025003;28;20037;-66
2023/05/28 00:54:49;;;;;;;47.33;33.42;;;;;;;;;;5023526;28;20464;-65
2023/05/28 00:57:21;;;;;;;49.50;33.10;;;;;;;;;;5023160;28;20104;-66
2023/05/28 00:59:48;;;;;;;39.75;29.75;;;;;;;;;;5028129;28;20367;-65
2023/05/28 01:02:15;;;;;;;44.05;29.65;;;;;;;;;;5025047;28;20062;-66
2023/05/28 01:04:42;;;;;;;46.42;30.85;;;;;;;;;;5022250;28;20026;-66
2023/05/28 01:07:08;;;;;;;49.33;33.15;;;;;;;;;;5021539;28;20026;-65
2023/05/28 01:09:36;;;;;;;56.00;38.85;;;;;;;;;;5022579;28;20021;-65
2023/05/28 01:12:03;;;;;;;213.13;153.45;;;;;;;;;;5023162;28;20482;-66
2023/05/28 01:14:30;;;;;;;305.52;214.00;;;;;;;;;;5024590;28;20371;-65
2023/05/28 01:16:58;;;;;;;115.90;72.00;;;;;;;;;;5023236;28;20037;-65
2023/05/28 01:19:27;;;;;;;183.40;95.05;;;;;;;;;;5032941;28;20030;-67
2023/05/28 01:22:04;;;;;;;254.50;117.15;;;;;;;;;;5034529;28;20376;-67
2023/05/28 01:24:33;;;;;;;148.43;70.82;;;;;;;;;;5034105;28;20052;-66
2023/05/28 01:27:00;;;;;;;85.22;48.00;;;;;;;;;;5033946;28;20025;-67
2023/05/28 01:29:27;;;;;;;132.88;61.10;;;;;;;;;;5033973;28;20593;-66
2023/05/28 01:31:54;;;;;;;68.15;39.80;;;;;;;;;;5033458;28;20032;-65
2023/05/28 01:34:22;;;;;;;66.85;40.13;;;;;;;;;;5032408;28;20037;-65
2023/05/28 01:37:01;;;;;;;94.70;49.13;;;;;;;;;;5023647;28;20075;-66
2023/05/28 01:39:30;;;;;;;81.82;45.25;;;;;;;;;;5033886;28;20045;-66
2023/05/28 01:41:57;;;;;;;68.68;42.28;;;;;;;;;;5033600;28;20034;-66
2023/05/28 01:44:25;;;;;;;60.88;38.05;;;;;;;;;;5033624;28;20402;-66
2023/05/28 01:46:54;;;;;;;54.33;35.97;;;;;;;;;;5033840;28;20013;-65
2023/05/28 01:49:20;;;;;;;80.82;49.08;;;;;;;;;;5025898;28;20390;-66
2023/05/28 01:51:47;;;;;;;98.75;62.15;;;;;;;;;;5024308;28;20119;-64
2023/05/28 01:54:14;;;;;;;67.50;41.13;;;;;;;;;;5024818;28;20022;-66
2023/05/28 01:56:41;;;;;;;41.65;28.70;;;;;;;;;;5026037;28;20030;-66
2023/05/28 01:59:07;;;;;;;40.70;28.60;;;;;;;;;;5024062;28;20046;-70
2023/05/28 02:01:35;;;;;;;46.67;34.28;;;;;;;;;;5022881;28;20108;-65
2023/05/28 02:04:02;;;;;;;63.58;45.33;;;;;;;;;;5023340;28;20041;-66
2023/05/28 02:06:30;;;;;;;82.88;57.95;;;;;;;;;;5021765;28;20072;-66
2023/05/28 02:08:57;;;;;;;60.72;39.75;;;;;;;;;;5023348;28;20032;-65
2023/05/28 02:11:23;;;;;;;61.42;41.00;;;;;;;;;;5023442;28;20034;-65
2023/05/28 02:13:50;;;;;;;47.80;31.23;;;;;;;;;;5021588;28;20022;-66
2023/05/28 02:16:17;;;;;;;32.50;25.17;;;;;;;;;;5022634;28;20060;-64
2023/05/28 02:18:45;;;;;;;45.33;31.63;;;;;;;;;;5024736;28;20029;-66
2023/05/28 02:21:13;;;;;;;40.60;27.67;;;;;;;;;;5023427;28;20022;-67
2023/05/28 02:23:44;;;;;;;34.42;25.17;;;;;;;;;;5022551;28;20475;-65
2023/05/28 02:26:10;;;;;;;35.65;24.73;;;;;;;;;;5021557;28;20026;-65
2023/05/28 02:28:37;;;;;;;32.00;23.20;;;;;;;;;;5023024;28;20509;-64
2023/05/28 02:31:04;;;;;;;40.83;29.00;;;;;;;;;;5024149;28;20486;-64
2023/05/28 02:33:33;;;;;;;33.42;24.90;;;;;;;;;;5022224;28;20030;-64
2023/05/28 02:35:59;;;;;;;32.25;24.02;;;;;;;;;;5022776;28;20025;-66
2023/05/28 02:38:26;;;;;;;32.80;25.77;;;;;;;;;;5023905;28;20025;-69
2023/05/28 02:40:53;;;;;;;42.00;27.92;;;;;;;;;;5026487;28;20063;-66
2023/05/28 02:43:20;;;;;;;32.90;24.10;;;;;;;;;;5024347;28;20041;-65
2023/05/28 02:45:46;;;;;;;131.18;58.85;;;;;;;;;;5021738;28;20119;-64
2023/05/28 02:48:13;;;;;;;46.13;27.95;;;;;;;;;;5023466;28;20017;-63
2023/05/28 02:50:40;;;;;;;33.33;24.63;;;;;;;;;;5022649;28;20076;-66
2023/05/28 02:53:06;;;;;;;36.55;25.80;;;;;;;;;;5021560;28;20033;-65
2023/05/28 02:55:33;;;;;;;36.85;25.20;;;;;;;;;;5029422;28;20034;-65
2023/05/28 02:58:00;;;;;;;29.50;22.90;;;;;;;;;;5023899;28;20387;-65
2023/05/28 03:00:26;;;;;;;31.95;23.08;;;;;;;;;;5025803;28;20047;-65
2023/05/28 03:02:53;;;;;;;33.80;23.27;;;;;;;;;;5021974;28;20030;-64
2023/05/28 03:05:20;;;;;;;27.83;22.10;;;;;;;;;;5024364;28;20022;-67
2023/05/28 03:07:47;;;;;;;55.22;41.25;;;;;;;;;;5030858;28;20036;-66
2023/05/28 03:10:13;;;;;;;33.72;26.90;;;;;;;;;;5025706;28;20497;-65
2023/05/28 03:12:40;;;;;;;32.58;24.35;;;;;;;;;;5025482;28;20038;-65
2023/05/28 03:15:07;;;;;;;28.75;23.45;;;;;;;;;;5026935;28;20025;-66
2023/05/28 03:17:34;;;;;;;30.48;23.40;;;;;;;;;;5025454;28;20026;-66
2023/05/28 03:20:01;;;;;;;33.65;24.48;;;;;;;;;;5025621;28;20014;-65
2023/05/28 03:22:27;;;;;;;30.42;24.40;;;;;;;;;;5026833;28;20033;-65
2023/05/28 03:24:56;;;;;;;38.47;25.10;;;;;;;;;;5024247;28;20471;-75
2023/05/28 03:27:23;;;;;;;39.00;25.77;;;;;;;;;;5016615;28;20050;-78
2023/05/28 03:29:50;;;;;;;30.25;24.95;;;;;;;;;;5016531;28;20030;-66
2023/05/28 03:32:17;;;;;;;32.08;25.63;;;;;;;;;;5016545;28;20470;-66
2023/05/28 03:34:44;;;;;;;29.85;23.00;;;;;;;;;;5016881;28;20030;-66
2023/05/28 03:37:10;;;;;;;27.23;22.52;;;;;;;;;;5016643;28;20105;-65
2023/05/28 03:39:37;;;;;;;26.52;21.98;;;;;;;;;;5016562;28;20371;-65
2023/05/28 03:42:05;;;;;;;43.92;30.58;;;;;;;;;;5016375;28;20311;-64
2023/05/28 03:44:32;;;;;;;43.47;30.55;;;;;;;;;;5016398;28;20559;-66
2023/05/28 03:46:58;;;;;;;42.67;31.17;;;;;;;;;;5016770;28;20060;-65
2023/05/28 03:49:25;;;;;;;31.73;25.42;;;;;;;;;;5027142;28;20049;-65
2023/05/28 03:51:52;;;;;;;33.08;26.85;;;;;;;;;;5026750;28;20021;-64
2023/05/28 03:54:19;;;;;;;33.85;26.35;;;;;;;;;;5026974;28;20528;-64
2023/05/28 03:56:45;;;;;;;32.53;25.42;;;;;;;;;;5025114;28;20053;-65
2023/05/28 03:59:12;;;;;;;32.20;26.27;;;;;;;;;;5028697;28;20356;-65
2023/05/28 04:01:39;;;;;;;89.43;68.60;;;;;;;;;;5026100;28;20021;-65
2023/05/28 04:04:05;;;;;;;87.43;67.53;;;;;;;;;;5025108;28;20022;-65
2023/05/28 04:06:32;;;;;;;46.78;28.98;;;;;;;;;;5025547;28;20463;-65
2023/05/28 04:08:59;;;;;;;36.15;28.05;;;;;;;;;;5024801;28;20014;-65
2023/05/28 04:11:29;;;;;;;35.67;27.73;;;;;;;;;;5023885;28;20045;-65
2023/05/28 04:13:56;;;;;;;37.92;29.08;;;;;;;;;;5025267;28;20049;-65
2023/05/28 04:16:23;;;;;;;34.67;28.02;;;;;;;;;;5029337;28;20463;-64
2023/05/28 04:18:50;;;;;;;42.90;31.23;;;;;;;;;;5035370;28;20051;-62
2023/05/28 04:21:17;;;;;;;32.92;26.52;;;;;;;;;;5035334;28;20112;-64
2023/05/28 04:23:44;;;;;;;34.47;27.48;;;;;;;;;;5035485;28;20025;-64
2023/05/28 04:26:10;;;;;;;35.85;27.10;;;;;;;;;;5035418;28;20475;-64
2023/05/28 04:28:37;;;;;;;39.67;28.58;;;;;;;;;;5035320;28;20107;-63
2023/05/28 04:31:04;;;;;;;39.22;31.08;;;;;;;;;;5035273;28;20379;-65
2023/05/28 04:33:31;;;;;;;39.40;30.63;;;;;;;;;;5035040;28;20479;-64
2023/05/28 04:35:58;;;;;;;39.17;29.55;;;;;;;;;;5034960;28;20022;-64
2023/05/28 04:38:28;;;;;;;39.03;31.95;;;;;;;;;;5035065;28;20036;-66
2023/05/28 04:40:55;;;;;;;36.95;28.65;;;;;;;;;;5035274;28;20104;-65
2023/05/28 04:43:22;;;;;;;37.20;30.88;;;;;;;;;;5034737;28;20041;-65
2023/05/28 04:45:49;;;;;;;35.05;27.63;;;;;;;;;;5032886;28;20033;-64
2023/05/28 04:48:16;;;;;;;34.58;28.50;;;;;;;;;;5026517;28;20032;-64
2023/05/28 04:50:43;;;;;;;34.47;27.58;;;;;;;;;;5024291;28;20075;-65
2023/05/28 04:53:10;;;;;;;34.92;28.80;;;;;;;;;;5023968;28;20026;-65
2023/05/28 04:55:37;;;;;;;33.65;28.25;;;;;;;;;;5022655;28;20022;-64
2023/05/28 04:58:03;;;;;;;34.42;29.02;;;;;;;;;;5024502;28;20057;-70
2023/05/28 05:00:31;;;;;;;36.40;27.95;;;;;;;;;;5024816;28;20030;-62
2023/05/28 05:02:57;;;;;;;40.42;29.80;;;;;;;;;;5024447;28;20030;-68
2023/05/28 05:05:24;;;;;;;35.10;29.85;;;;;;;;;;5024359;28;20080;-63
2023/05/28 05:07:51;;;;;;;38.50;29.88;;;;;;;;;;5021283;28;20014;-64
2023/05/28 05:10:19;;;;;;;41.55;33.45;;;;;;;;;;5021518;28;20030;-63
2023/05/28 05:12:45;;;;;;;120.97;67.63;;;;;;;;;;5023031;28;20022;-64
2023/05/28 05:15:12;;;;;;;45.60;35.28;;;;;;;;;;5020852;28;20029;-65
2023/05/28 05:17:40;;;;;;;44.17;33.05;;;;;;;;;;5020843;28;20033;-65
2023/05/28 05:20:08;;;;;;;46.72;31.73;;;;;;;;;;5023476;28;20025;-65
2023/05/28 05:22:35;;;;;;;40.45;31.00;;;;;;;;;;5023351;28;20034;-64
2023/05/28 05:25:02;;;;;;;45.83;33.97;;;;;;;;;;5025849;28;20017;-64
2023/05/28 05:27:28;;;;;;;51.63;35.53;;;;;;;;;;5025471;28;20022;-64
2023/05/28 05:29:55;;;;;;;39.40;29.85;;;;;;;;;;5026144;28;20044;-66
2023/05/28 05:32:22;;;;;;;29.73;26.52;;;;;;;;;;5024703;28;20017;-64
2023/05/28 05:34:48;;;;;;;40.53;31.50;;;;;;;;;;5022896;28;20014;-65
2023/05/28 05:37:15;;;;;;;39.45;31.23;;;;;;;;;;5024887;28;20437;-65
2023/05/28 05:39:42;;;;;;;32.80;26.13;;;;;;;;;;5024494;28;20541;-65
2023/05/28 05:42:09;;;;;;;168.38;126.63;;;;;;;;;;5022570;28;20049;-66
2023/05/28 05:44:35;;;;;;;45.85;35.15;;;;;;;;;;5024633;28;20410;-66
2023/05/28 05:47:02;;;;;;;38.40;27.30;;;;;;;;;;5024304;28;20018;-65
2023/05/28 05:49:29;;;;;;;37.83;29.80;;;;;;;;;;5022353;28;20487;-64
2023/05/28 05:51:55;;;;;;;40.42;29.08;;;;;;;;;;5024272;28;20040;-66
2023/05/28 05:54:22;;;;;;;38.25;28.90;;;;;;;;;;5023681;28;20200;-64
2023/05/28 05:56:49;;;;;;;31.23;26.27;;;;;;;;;;5028484;28;20018;-63
2023/05/28 05:59:16;;;;;;;41.03;31.05;;;;;;;;;;5023780;28;20056;-65
2023/05/28 06:01:42;;;;;;;38.67;29.23;;;;;;;;;;5028223;28;20025;-70
2023/05/28 06:04:09;;;;;;;35.00;25.77;;;;;;;;;;5034701;28;20616;-67
2023/05/28 06:06:38;;;;;;;32.13;25.52;;;;;;;;;;5025458;28;20132;-65
2023/05/28 06:09:06;;;;;;;28.98;25.83;;;;;;;;;;5023161;28;20018;-65
2023/05/28 06:11:33;;;;;;;31.20;25.60;;;;;;;;;;5023023;28;20025;-66
2023/05/28 06:14:00;;;;;;;55.83;34.30;;;;;;;;;;5024538;28;20028;-65
2023/05/28 06:16:28;;;;;;;38.55;25.70;;;;;;;;;;5023314;28;20085;-65
2023/05/28 06:18:55;;;;;;;29.85;24.40;;;;;;;;;;5022767;28;20029;-65
2023/05/28 06:21:23;;;;;;;29.48;25.77;;;;;;;;;;5024733;28;20124;-65
2023/05/28 06:23:49;;;;;;;32.60;25.27;;;;;;;;;;5023467;28;20026;-65
2023/05/28 06:26:16;;;;;;;42.58;29.15;;;;;;;;;;5022612;28;20144;-66
2023/05/28 06:28:43;;;;;;;36.10;25.27;;;;;;;;;;5020701;28;20510;-63
2023/05/28 06:31:10;;;;;;;30.88;24.88;;;;;;;;;;5029765;28;20053;-66
2023/05/28 06:33:36;;;;;;;29.38;23.55;;;;;;;;;;5029165;28;20083;-64
2023/05/28 06:36:03;;;;;;;30.13;26.83;;;;;;;;;;5029573;28;20033;-67
2023/05/28 06:38:30;;;;;;;37.50;26.13;;;;;;;;;;5029066;28;20025;-67
2023/05/28 06:40:56;;;;;;;28.38;24.63;;;;;;;;;;5034414;28;20040;-63
2023/05/28 06:43:23;;;;;;;32.30;25.15;;;;;;;;;;5034371;28;20076;-64
2023/05/28 06:45:50;;;;;;;29.02;23.50;;;;;;;;;;5034787;28;20091;-65
2023/05/28 06:48:17;;;;;;;31.85;23.33;;;;;;;;;;5034268;28;20479;-63
2023/05/28 06:50:43;;;;;;;31.85;24.33;;;;;;;;;;5023588;28;20022;-65
2023/05/28 06:53:10;;;;;;;28.83;24.95;;;;;;;;;;5019866;28;20593;-65
2023/05/28 06:55:37;;;;;;;29.98;24.40;;;;;;;;;;5025845;28;20037;-64
2023/05/28 06:58:04;;;;;;;32.05;25.17;;;;;;;;;;5029391;28;20033;-64
2023/05/28 07:00:31;;;;;;;33.47;25.42;;;;;;;;;;5020352;28;20030;-64
2023/05/28 07:02:57;;;;;;;29.58;23.90;;;;;;;;;;5017373;28;20386;-63
2023/05/28 07:05:24;;;;;;;33.08;23.80;;;;;;;;;;5018035;28;20022;-63
2023/05/28 07:07:51;;;;;;;32.22;24.70;;;;;;;;;;5024324;28;20470;-65
2023/05/28 07:10:17;;;;;;;29.80;23.15;;;;;;;;;;5034834;28;20032;-65
2023/05/28 07:12:44;;;;;;;28.17;23.58;;;;;;;;;;5026504;28;20030;-65
2023/05/28 07:15:11;;;;;;;32.03;25.58;;;;;;;;;;5021476;28;20091;-63
2023/05/28 07:17:38;;;;;;;34.70;29.15;;;;;;;;;;5023703;28;20070;-65
2023/05/28 07:20:05;;;;;;;32.03;26.98;;;;;;;;;;5026218;28;20021;-64
2023/05/28 07:22:32;;;;;;;36.85;30.00;;;;;;;;;;5028266;28;20474;-66
2023/05/28 07:24:59;;;;;;;32.88;26.33;;;;;;;;;;5026510;28;20363;-66
2023/05/28 07:27:26;;;;;;;29.80;25.38;;;;;;;;;;5029370;28;20025;-65
2023/05/28 07:29:52;;;;;;;36.60;28.08;;;;;;;;;;5028680;28;20028;-63
2023/05/28 07:32:19;;;;;;;37.53;26.58;;;;;;;;;;5026865;28;20026;-66
2023/05/28 07:34:46;;;;;;;29.83;26.00;;;;;;;;;;5027191;28;20020;-65
2023/05/28 07:37:12;;;;;;;26.15;23.35;;;;;;;;;;5025215;28;20393;-66
2023/05/28 07:39:39;;;;;;;31.20;25.50;;;;;;;;;;5025173;28;20040;-66
2023/05/28 07:42:06;;;;;;;33.45;25.30;;;;;;;;;;5022159;28;20107;-64
2023/05/28 07:44:34;;;;;;;30.00;25.02;;;;;;;;;;5025202;28;20025;-65
2023/05/28 07:47:01;;;;;;;30.60;24.83;;;;;;;;;;5030738;28;20030;-65
2023/05/28 07:49:27;;;;;;;31.15;24.83;;;;;;;;;;5026067;28;20029;-62
2023/05/28 07:51:54;;;;;;;32.97;26.05;;;;;;;;;;5025568;28;20527;-64
2023/05/28 07:54:21;;;;;;;33.08;26.02;;;;;;;;;;5023933;28;20036;-64
2023/05/28 07:56:48;;;;;;;30.00;24.95;;;;;;;;;;5016132;28;20026;-65
2023/05/28 07:59:15;;;;;;;32.80;25.02;;;;;;;;;;5015899;28;20026;-64
2023/05/28 08:01:42;;;;;;;31.85;24.70;;;;;;;;;;5015975;28;20034;-65
2023/05/28 08:04:08;;;;;;;39.75;26.17;;;;;;;;;;5018554;28;20075;-65
2023/05/28 08:06:35;;;;;;;29.95;25.00;;;;;;;;;;5024805;28;20049;-65
2023/05/28 08:09:02;;;;;;;29.33;25.10;;;;;;;;;;5024667;28;20385;-65
2023/05/28 08:11:29;;;;;;;35.20;26.55;;;;;;;;;;5026670;28;20072;-64
2023/05/28 08:13:56;;;;;;;34.10;24.38;;;;;;;;;;5029805;28;20033;-65
2023/05/28 08:16:22;;;;;;;31.58;25.17;;;;;;;;;;5029638;28;20057;-64
2023/05/28 08:18:49;;;;;;;38.80;27.63;;;;;;;;;;5024101;28;20046;-64
2023/05/28 08:21:16;;;;;;;34.38;27.25;;;;;;;;;;5020364;28;20032;-65
2023/05/28 08:23:43;;;;;;;36.40;26.38;;;;;;;;;;5015476;28;20056;-65
2023/05/28 08:26:10;;;;;;;32.63;26.52;;;;;;;;;;5031975;28;20373;-66
2023/05/28 08:28:37;;;;;;;34.95;26.83;;;;;;;;;;5026430;28;20064;-65
2023/05/28 08:31:03;;;;;;;45.53;33.33;;;;;;;;;;5026857;28;20483;-65
2023/05/28 08:33:30;;;;;;;42.42;29.52;;;;;;;;;;5022871;28;20406;-64
2023/05/28 08:35:57;;;;;;;30.30;26.00;;;;;;;;;;5026811;28;20033;-65
2023/05/28 08:38:24;;;;;;;35.55;27.23;;;;;;;;;;5024418;28;20022;-64
2023/05/28 08:40:54;;;;;;;37.67;29.52;;;;;;;;;;5025193;28;20280;-66
2023/05/28 08:43:21;;;;;;;34.95;25.95;;;;;;;;;;5029711;28;20045;-67
2023/05/28 08:45:48;;;;;;;45.22;32.67;;;;;;;;;;5024816;28;20068;-66
2023/05/28 08:48:15;;;;;;;99.50;77.15;;;;;;;;;;5025408;28;20382;-66
2023/05/28 08:50:45;;;;;;;132.93;102.07;;;;;;;;;;5026330;28;20021;-73
2023/05/28 08:53:14;;;;;;;37.80;31.42;;;;;;;;;;5026554;28;20030;-71
2023/05/28 08:55:40;;;;;;;37.63;30.20;;;;;;;;;;5024642;28;20026;-69
2023/05/28 08:58:07;;;;;;;37.50;28.40;;;;;;;;;;5025162;28;20027;-70
2023/05/28 09:00:34;;;;;;;212.95;182.50;;;;;;;;;;5024125;28;20045;-71
2023/05/28 09:03:07;;;;;;;168.93;130.52;;;;;;;;;;5023972;28;20014;-68
2023/05/28 09:05:37;;;;;;;41.47;33.80;;;;;;;;;;5027880;28;20025;-71
2023/05/28 09:08:07;;;;;;;39.45;29.13;;;;;;;;;;5017928;28;20383;-69
2023/05/28 09:10:34;;;;;;;36.78;29.95;;;;;;;;;;5024356;28;20018;-68
2023/05/28 09:13:01;;;;;;;38.80;29.95;;;;;;;;;;5024438;28;20053;-70
2023/05/28 09:15:29;;;;;;;37.00;29.92;;;;;;;;;;5020300;28;20049;-68
2023/05/28 09:17:58;;;;;;;43.20;30.77;;;;;;;;;;5022955;28;20030;-69
2023/05/28 09:20:25;;;;;;;35.83;27.70;;;;;;;;;;5025692;28;20045;-67
2023/05/28 09:23:01;;;;;;;39.38;29.90;;;;;;;;;;5028800;28;20025;-70
2023/05/28 09:25:28;;;;;;;35.88;29.45;;;;;;;;;;5029598;28;20029;-69
2023/05/28 09:27:56;;;;;;;33.40;28.27;;;;;;;;;;5027170;28;20022;-69
2023/05/28 09:30:23;;;;;;;33.20;28.05;;;;;;;;;;5028534;28;20075;-68
2023/05/28 09:33:10;;;;;;;40.25;29.70;;;;;;;;;;5019265;28;20222;-67
2023/05/28 09:35:37;;;;;;;37.15;31.40;;;;;;;;;;5022691;28;20038;-69
2023/05/28 09:38:09;;;;;;;38.83;30.73;;;;;;;;;;5020363;28;20040;-70
2023/05/28 09:40:41;;;;;;;58.10;43.05;;;;;;;;;;5022414;28;20072;-68
2023/05/28 09:43:09;;;;;;;51.80;34.95;;;;;;;;;;5028964;28;20049;-69
2023/05/28 09:45:36;;;;;;;55.35;41.42;;;;;;;;;;5027760;28;20021;-72
2023/05/28 09:48:03;;;;;;;47.55;35.63;;;;;;;;;;5028321;28;20037;-71
2023/05/28 09:50:30;;;;;;;42.53;32.78;;;;;;;;;;5024324;28;20029;-73
2023/05/28 09:52:57;;;;;;;76.25;57.95;;;;;;;;;;5027617;28;20434;-71
2023/05/28 09:55:26;;;;;;;40.58;32.75;;;;;;;;;;5027243;28;20078;-72
2023/05/28 09:58:03;;;;;;;43.50;37.08;;;;;;;;;;5026766;28;20075;-73
2023/05/28 10:00:33;;;;;;;39.38;31.42;;;;;;;;;;5027020;28;20025;-72
2023/05/28 10:03:10;;;;;;;64.75;50.60;;;;;;;;;;5025287;28;20053;-73
2023/05/28 10:05:37;;;;;;;45.90;37.03;;;;;;;;;;5024939;28;20022;-73
2023/05/28 10:08:05;;;;;;;67.57;53.47;;;;;;;;;;5016036;28;20018;-72
2023/05/28 10:10:32;;;;;;;49.72;39.97;;;;;;;;;;5013120;28;20014;-74
2023/05/28 10:12:59;;;;;;;81.10;66.22;;;;;;;;;;5021404;28;20483;-73
2023/05/28 10:15:26;;;;;;;90.35;71.60;;;;;;;;;;5022889;28;20100;-73
2023/05/28 10:17:53;;;;;;;96.22;77.22;;;;;;;;;;5024249;28;20076;-72
2023/05/28 10:20:20;;;;;;;137.98;116.85;;;;;;;;;;5015763;28;20105;-73
2023/05/28 10:22:48;;;;;;;72.30;60.83;;;;;;;;;;5016353;28;20502;-72
2023/05/28 10:25:18;;;;;;;90.75;72.53;;;;;;;;;;5025979;28;20425;-71
2023/05/28 10:27:45;;;;;;;83.90;62.55;;;;;;;;;;5027530;28;20033;-72
2023/05/28 10:30:12;;;;;;;136.13;104.55;;;;;;;;;;5015113;28;20068;-72
2023/05/28 10:32:41;;;;;;;217.18;163.60;;;;;;;;;;5014956;28;20022;-73
2023/05/28 10:35:10;;;;;;;135.27;92.10;;;;;;;;;;5017644;28;20375;-68
2023/05/28 10:37:37;;;;;;;60.78;45.22;;;;;;;;;;5015068;28;20449;-70
2023/05/28 10:40:07;;;;;;;48.45;35.85;;;;;;;;;;5014953;28;20033;-67
2023/05/28 10:42:41;;;;;;;46.80;35.88;;;;;;;;;;5021830;28;20494;-67
2023/05/28 10:45:10;;;;;;;57.72;37.67;;;;;;;;;;5017537;28;20033;-68
2023/05/28 10:47:38;;;;;;;65.07;46.78;;;;;;;;;;5015263;28;20029;-68
2023/05/28 10:50:08;;;;;;;64.55;43.72;;;;;;;;;;5012580;28;20618;-69
2023/05/28 10:52:35;;;;;;;57.70;41.30;;;;;;;;;;5012605;28;20087;-68
2023/05/28 10:55:03;;;;;;;94.82;64.30;;;;;;;;;;5016748;28;20030;-70
2023/05/28 10:57:40;;;;;;;86.43;59.60;;;;;;;;;;5015679;28;20071;-70
2023/05/28 11:00:12;;;;;;;68.05;49.13;;;;;;;;;;5015134;28;20030;-69
2023/05/28 11:02:38;;;;;;;;;;;;;;;;;;5025450;28;20383;-70
2023/05/28 11:05:05;;;;;;;111.95;90.90;;;;;;;;;;5025395;28;20401;-66
2023/05/28 11:07:33;;;;;;;165.50;129.38;;;;;;;;;;5021869;28;20017;-64
2023/05/28 11:10:00;;;;;;;131.32;99.85;;;;;;;;;;5023376;28;20018;-64
2023/05/28 11:12:27;;;;;;;164.40;133.13;;;;;;;;;;5020831;28;20026;-65
2023/05/28 11:14:54;;;;;;;198.25;170.68;;;;;;;;;;5021386;28;20022;-65
2023/05/28 11:17:21;;;;;;;90.70;66.60;;;;;;;;;;5023890;28;20039;-65
2023/05/28 11:19:48;;;;;;;99.22;66.80;;;;;;;;;;5020659;28;20026;-66
2023/05/28 11:22:17;;;;;;;106.82;72.60;;;;;;;;;;5020964;28;20657;-65
2023/05/28 11:24:52;;;;;;;339.98;290.83;;;;;;;;;;5020724;28;20037;-65
2023/05/28 11:27:19;;;;;;;210.65;172.40;;;;;;;;;;5027126;28;20505;-66
2023/05/28 11:29:46;;;;;;;122.55;92.28;;;;;;;;;;5024668;28;20080;-65
2023/05/28 11:32:13;;;;;;;112.60;85.60;;;;;;;;;;5027020;28;20036;-66
2023/05/28 11:34:40;;;;;;;101.95;78.65;;;;;;;;;;5034417;28;20096;-68
2023/05/28 11:37:07;;;;;;;88.70;60.63;;;;;;;;;;5031078;28;20549;-65
2023/05/28 11:39:34;;;;;;;88.03;60.38;;;;;;;;;;5032495;28;20390;-65
2023/05/28 11:42:01;;;;;;;87.75;61.90;;;;;;;;;;5016088;28;20455;-65
2023/05/28 11:44:28;;;;;;;119.28;80.03;;;;;;;;;;5019634;28;20061;-69
2023/05/28 11:46:55;;;;;;;156.13;109.07;;;;;;;;;;5022462;28;20033;-73
2023/05/28 11:49:22;;;;;;;113.82;83.35;;;;;;;;;;5025905;28;20025;-72
2023/05/28 11:51:54;;;;;;;64.32;45.00;;;;;;;;;;5030747;28;20014;-73
2023/05/28 11:54:22;;;;;;;66.28;38.83;;;;;;;;;;5026834;28;20037;-71
2023/05/28 11:56:49;;;;;;;111.20;81.45;;;;;;;;;;5026650;28;20057;-71
2023/05/28 11:59:17;;;;;;;46.60;31.10;;;;;;;;;;5024895;28;20463;-73
2023/05/28 12:01:44;;;;;;;43.83;26.90;;;;;;;;;;5033708;28;20104;-72
2023/05/28 12:04:10;;;;;;;40.45;26.73;;;;;;;;;;5034001;28;20537;-68
2023/05/28 12:06:57;;;;;;;44.42;25.83;;;;;;;;;;5030019;28;20648;-73
2023/05/28 12:09:24;;;;;;;41.33;26.17;;;;;;;;;;5030391;28;20352;-72
2023/05/28 12:12:11;;;;;;;29.40;19.92;;;;;;;;;;5034116;28;20024;-70
2023/05/28 12:14:37;;;;;;;29.85;20.17;;;;;;;;;;5027016;28;20068;-74
2023/05/28 12:17:05;;;;;;;29.20;20.27;;;;;;;;;;5026046;28;20030;-73
2023/05/28 12:19:34;;;;;;;38.55;26.52;;;;;;;;;;5030659;28;20463;-73
2023/05/28 12:22:00;;;;;;;32.75;22.05;;;;;;;;;;5035111;28;20530;-72
2023/05/28 12:24:28;;;;;;;32.10;20.98;;;;;;;;;;5030676;28;20031;-75
2023/05/28 12:26:55;;;;;;;43.00;28.85;;;;;;;;;;5031250;28;20045;-72
2023/05/28 12:29:22;;;;;;;31.15;23.13;;;;;;;;;;5032691;28;20021;-72
2023/05/28 12:31:57;;;;;;;49.95;33.72;;;;;;;;;;5031760;28;20096;-72
2023/05/28 12:34:24;;;;;;;26.42;17.75;;;;;;;;;;5026837;28;20026;-70
2023/05/28 12:36:50;;;;;;;42.67;24.35;;;;;;;;;;5028469;28;20104;-72
2023/05/28 12:39:17;;;;;;;38.35;22.67;;;;;;;;;;5029788;28;20232;-73
2023/05/28 12:41:44;;;;;;;31.10;22.60;;;;;;;;;;5028385;28;20099;-72
2023/05/28 12:44:11;;;;;;;47.00;26.73;;;;;;;;;;5029244;28;20107;-70
2023/05/28 12:46:37;;;;;;;43.80;25.50;;;;;;;;;;5032621;28;20498;-71
2023/05/28 12:49:04;;;;;;;52.72;30.15;;;;;;;;;;5029649;28;20053;-70
2023/05/28 12:51:32;;;;;;;58.60;36.97;;;;;;;;;;5029284;28;20010;-70
2023/05/28 12:54:00;;;;;;;43.03;25.70;;;;;;;;;;5027273;28;20025;-71
2023/05/28 12:56:26;;;;;;;110.47;72.38;;;;;;;;;;5024265;28;20095;-72
2023/05/28 12:58:53;;;;;;;38.08;24.27;;;;;;;;;;5024885;28;20025;-71
2023/05/28 13:01:20;;;;;;;61.42;39.95;;;;;;;;;;5026527;28;20026;-73
2023/05/28 13:03:47;;;;;;;29.05;21.25;;;;;;;;;;5029575;28;20478;-73
2023/05/28 13:06:13;;;;;;;39.88;28.25;;;;;;;;;;5026075;28;20033;-74
2023/05/28 13:08:40;;;;;;;36.40;26.52;;;;;;;;;;5024142;28;20025;-75
2023/05/28 13:11:07;;;;;;;29.80;21.90;;;;;;;;;;5026398;28;20387;-76
2023/05/28 13:13:33;;;;;;;37.55;27.20;;;;;;;;;;5028143;28;20021;-71
2023/05/28 13:16:00;;;;;;;33.88;20.80;;;;;;;;;;5023323;28;20141;-74
2023/05/28 13:18:27;;;;;;;35.60;21.45;;;;;;;;;;5023935;28;20030;-72
2023/05/28 13:20:53;;;;;;;55.92;41.22;;;;;;;;;;5024053;28;20105;-72
2023/05/28 13:23:20;;;;;;;38.10;27.48;;;;;;;;;;5019635;28;20143;-72
2023/05/28 13:25:47;;;;;;;60.35;41.13;;;;;;;;;;5029359;28;20025;-73
2023/05/28 13:28:14;;;;;;;57.13;39.88;;;;;;;;;;5024306;28;20080;-74
2023/05/28 13:30:41;;;;;;;47.58;31.92;;;;;;;;;;5028883;28;20604;-74
2023/05/28 13:33:08;;;;;;;45.53;33.72;;;;;;;;;;5023643;28;20390;-75
2023/05/28 13:35:34;;;;;;;68.07;54.92;;;;;;;;;;5024024;28;21238;-75
2023/05/28 13:38:02;;;;;;;38.40;25.02;;;;;;;;;;5023124;28;20029;-72
2023/05/28 13:40:32;;;;;;;43.47;29.83;;;;;;;;;;5025531;28;20041;-73
2023/05/28 13:42:59;;;;;;;33.45;22.30;;;;;;;;;;5031731;28;21037;-74
2023/05/28 13:45:26;;;;;;;78.53;43.00;;;;;;;;;;5027359;28;20049;-75
2023/05/28 13:47:53;;;;;;;80.82;43.65;;;;;;;;;;5023485;28;20253;-66
2023/05/28 13:50:20;;;;;;;47.67;33.60;;;;;;;;;;5025333;28;20042;-65
2023/05/28 13:52:46;;;;;;;142.55;79.82;;;;;;;;;;5018808;28;20087;-66
2023/05/28 13:55:13;;;;;;;133.50;82.22;;;;;;;;;;5020468;28;20124;-65
2023/05/28 13:57:40;;;;;;;68.85;46.03;;;;;;;;;;5025386;28;20095;-66
2023/05/28 14:00:09;;;;;;;70.82;54.72;;;;;;;;;;5024662;28;20021;-65
2023/05/28 14:02:36;;;;;;;88.07;65.30;;;;;;;;;;5019099;28;20036;-66
2023/05/28 14:05:03;;;;;;;55.35;40.03;;;;;;;;;;5019014;28;20167;-65
2023/05/28 14:07:29;;;;;;;38.20;27.88;;;;;;;;;;5021845;28;20032;-65
2023/05/28 14:09:56;;;;;;;45.10;29.30;;;;;;;;;;5022396;28;20045;-65
2023/05/28 14:12:23;;;;;;;87.70;66.20;;;;;;;;;;5021812;28;20033;-66
2023/05/28 14:14:50;;;;;;;48.00;33.33;;;;;;;;;;5025775;28;20029;-66
2023/05/28 14:17:16;;;;;;;79.28;66.90;;;;;;;;;;5021740;28;20017;-65